JBA24 KSFO-KSAN
Flight info
| Callsign | JBA24 |
|---|---|
| Flight time | 1h 1m |
| Altitude | 39000 |
| Route | WESLA5 YYUNG LAX COMIX2 |
| Aircraft | C750/M-SBDE3FGHRWXY/S |
Departure
| Time | 2026-04-22 03:57 |
|---|---|
| Airport | San Francisco International Airport (KSFO) |
Arrival
| Time | 2026-04-22 04:58 |
|---|---|
| Airport | San Diego International Airport (KSAN) |
| Time | Latitude | Longitude | Altitude | Speed | Heading |
|---|---|---|---|---|---|
| 2026-04-22 03:31 | 37.62792 | -122.38447 | 19 ft | 0 kts | 120° |
| 2026-04-22 03:45 | 37.62791 | -122.38444 | 19 ft | 1 kts | 120° |
| 2026-04-22 03:45 | 37.62777 | -122.38428 | 20 ft | 4 kts | 144° |
| 2026-04-22 03:46 | 37.62743 | -122.38416 | 19 ft | 6 kts | 184° |
| 2026-04-22 03:46 | 37.62712 | -122.38446 | 20 ft | 0 kts | 211° |
| 2026-04-22 03:48 | 37.62709 | -122.38448 | 20 ft | 2 kts | 211° |
| 2026-04-22 03:49 | 37.62676 | -122.38464 | 19 ft | 6 kts | 179° |
| 2026-04-22 03:49 | 37.62650 | -122.38433 | 19 ft | 5 kts | 113° |
| 2026-04-22 03:49 | 37.62635 | -122.38396 | 19 ft | 5 kts | 119° |
| 2026-04-22 03:49 | 37.62606 | -122.38330 | 19 ft | 10 kts | 117° |
| 2026-04-22 03:50 | 37.62575 | -122.38257 | 20 ft | 9 kts | 118° |
| 2026-04-22 03:50 | 37.62542 | -122.38179 | 20 ft | 10 kts | 118° |
| 2026-04-22 03:50 | 37.62509 | -122.38103 | 20 ft | 10 kts | 117° |
| 2026-04-22 03:50 | 37.62480 | -122.38031 | 20 ft | 9 kts | 117° |
| 2026-04-22 03:51 | 37.62433 | -122.37921 | 19 ft | 18 kts | 118° |
| 2026-04-22 03:51 | 37.62377 | -122.37786 | 19 ft | 17 kts | 117° |
| 2026-04-22 03:51 | 37.62323 | -122.37658 | 20 ft | 16 kts | 118° |
| 2026-04-22 03:51 | 37.62272 | -122.37536 | 19 ft | 15 kts | 118° |
| 2026-04-22 03:52 | 37.62223 | -122.37420 | 20 ft | 15 kts | 118° |
| 2026-04-22 03:52 | 37.62177 | -122.37310 | 19 ft | 14 kts | 118° |
| 2026-04-22 03:52 | 37.62116 | -122.37165 | 19 ft | 22 kts | 118° |
| 2026-04-22 03:52 | 37.62047 | -122.37000 | 20 ft | 21 kts | 118° |
| 2026-04-22 03:53 | 37.61982 | -122.36843 | 21 ft | 20 kts | 118° |
| 2026-04-22 03:53 | 37.61919 | -122.36692 | 19 ft | 19 kts | 117° |
| 2026-04-22 03:53 | 37.61859 | -122.36549 | 19 ft | 18 kts | 116° |
| 2026-04-22 03:53 | 37.61801 | -122.36412 | 19 ft | 17 kts | 120° |
| 2026-04-22 03:54 | 37.61746 | -122.36282 | 19 ft | 16 kts | 118° |
| 2026-04-22 03:54 | 37.61681 | -122.36128 | 18 ft | 26 kts | 118° |
| 2026-04-22 03:54 | 37.61579 | -122.35886 | 20 ft | 36 kts | 117° |
| 2026-04-22 03:54 | 37.61505 | -122.35712 | 20 ft | 11 kts | 120° |
| 2026-04-22 03:55 | 37.61456 | -122.35674 | 18 ft | 7 kts | 178° |
| 2026-04-22 03:55 | 37.61408 | -122.35699 | 19 ft | 12 kts | 208° |
| 2026-04-22 03:55 | 37.61311 | -122.35765 | 19 ft | 16 kts | 205° |
| 2026-04-22 03:55 | 37.61251 | -122.35804 | 18 ft | 0 kts | 208° |
| 2026-04-22 03:56 | 37.61234 | -122.35815 | 18 ft | 4 kts | 208° |
| 2026-04-22 03:56 | 37.61201 | -122.35882 | 19 ft | 15 kts | 268° |
| 2026-04-22 03:57 | 37.61294 | -122.36133 | 19 ft | 74 kts | 298° |
| 2026-04-22 03:57 | 37.61672 | -122.37021 | 227 ft | 130 kts | 296° |
| 2026-04-22 03:57 | 37.62140 | -122.38061 | 790 ft | 144 kts | 298° |
| 2026-04-22 03:57 | 37.62652 | -122.39203 | 1417 ft | 156 kts | 297° |
| 2026-04-22 03:58 | 37.63227 | -122.40431 | 2064 ft | 168 kts | 297° |
| 2026-04-22 03:58 | 37.63809 | -122.41743 | 2765 ft | 178 kts | 296° |
| 2026-04-22 03:58 | 37.64403 | -122.43192 | 3302 ft | 194 kts | 294° |
| 2026-04-22 03:58 | 37.65022 | -122.44826 | 3722 ft | 221 kts | 293° |
| 2026-04-22 03:59 | 37.65733 | -122.46600 | 4606 ft | 228 kts | 296° |
| 2026-04-22 03:59 | 37.66518 | -122.48323 | 5679 ft | 229 kts | 297° |
| 2026-04-22 03:59 | 37.67012 | -122.50326 | 6088 ft | 255 kts | 272° |
| 2026-04-22 03:59 | 37.66537 | -122.52462 | 7075 ft | 255 kts | 240° |
| 2026-04-22 04:00 | 37.65313 | -122.54111 | 7966 ft | 270 kts | 215° |
| 2026-04-22 04:00 | 37.63519 | -122.54774 | 9197 ft | 274 kts | 189° |
| 2026-04-22 04:00 | 37.61568 | -122.54437 | 10010 ft | 291 kts | 166° |
| 2026-04-22 04:00 | 37.59717 | -122.53387 | 10905 ft | 298 kts | 158° |
| 2026-04-22 04:01 | 37.57829 | -122.52143 | 11151 ft | 323 kts | 157° |
| 2026-04-22 04:01 | 37.55709 | -122.50890 | 11246 ft | 349 kts | 161° |
| 2026-04-22 04:01 | 37.53401 | -122.49763 | 11787 ft | 357 kts | 163° |
| 2026-04-22 04:01 | 37.51085 | -122.48620 | 12611 ft | 359 kts | 162° |
| 2026-04-22 04:02 | 37.48681 | -122.47808 | 13163 ft | 357 kts | 179° |
| 2026-04-22 04:02 | 37.46229 | -122.47973 | 13935 ft | 352 kts | 192° |
| 2026-04-22 04:02 | 37.43792 | -122.48407 | 14580 ft | 355 kts | 193° |
| 2026-04-22 04:02 | 37.41342 | -122.48885 | 15204 ft | 358 kts | 194° |
| 2026-04-22 04:03 | 37.38861 | -122.49358 | 15798 ft | 363 kts | 194° |
| 2026-04-22 04:03 | 37.36350 | -122.49815 | 16456 ft | 366 kts | 194° |
| 2026-04-22 04:03 | 37.33814 | -122.50281 | 17124 ft | 370 kts | 195° |
| 2026-04-22 04:03 | 37.31256 | -122.50761 | 17810 ft | 374 kts | 195° |
| 2026-04-22 04:04 | 37.28668 | -122.51244 | 18487 ft | 378 kts | 195° |
| 2026-04-22 04:04 | 37.26050 | -122.51727 | 19057 ft | 382 kts | 196° |
| 2026-04-22 04:04 | 37.23399 | -122.52218 | 19632 ft | 387 kts | 197° |
| 2026-04-22 04:04 | 37.20714 | -122.52717 | 20221 ft | 393 kts | 198° |
| 2026-04-22 04:05 | 37.17995 | -122.53221 | 20777 ft | 397 kts | 199° |
| 2026-04-22 04:05 | 37.15251 | -122.53726 | 21446 ft | 400 kts | 200° |
| 2026-04-22 04:05 | 37.12478 | -122.54240 | 22054 ft | 405 kts | 200° |
| 2026-04-22 04:05 | 37.09666 | -122.54761 | 22657 ft | 410 kts | 200° |
| 2026-04-22 04:06 | 37.06802 | -122.55204 | 23222 ft | 423 kts | 196° |
| 2026-04-22 04:06 | 37.03800 | -122.55191 | 23809 ft | 440 kts | 189° |
| 2026-04-22 04:06 | 37.00708 | -122.54632 | 24300 ft | 458 kts | 180° |
| 2026-04-22 04:06 | 36.97600 | -122.53549 | 24839 ft | 471 kts | 172° |
| 2026-04-22 04:07 | 36.94549 | -122.51922 | 25444 ft | 484 kts | 163° |
| 2026-04-22 04:07 | 36.91597 | -122.49802 | 25958 ft | 493 kts | 158° |
| 2026-04-22 04:07 | 36.88654 | -122.47587 | 26495 ft | 495 kts | 159° |
| 2026-04-22 04:07 | 36.85672 | -122.45410 | 27022 ft | 497 kts | 159° |
| 2026-04-22 04:08 | 36.82665 | -122.43239 | 27542 ft | 501 kts | 159° |
| 2026-04-22 04:08 | 36.79652 | -122.41025 | 28031 ft | 504 kts | 158° |
| 2026-04-22 04:08 | 36.76628 | -122.38783 | 28608 ft | 506 kts | 158° |
| 2026-04-22 04:08 | 36.73582 | -122.36556 | 29114 ft | 510 kts | 159° |
| 2026-04-22 04:09 | 36.70503 | -122.34325 | 29639 ft | 513 kts | 159° |
| 2026-04-22 04:09 | 36.67417 | -122.32070 | 30187 ft | 516 kts | 159° |
| 2026-04-22 04:09 | 36.64316 | -122.29793 | 30579 ft | 519 kts | 159° |
| 2026-04-22 04:09 | 36.61242 | -122.27551 | 31036 ft | 520 kts | 159° |
| 2026-04-22 04:10 | 36.58077 | -122.25252 | 31653 ft | 518 kts | 158° |
| 2026-04-22 04:10 | 36.55017 | -122.23022 | 32330 ft | 515 kts | 158° |
| 2026-04-22 04:10 | 36.51932 | -122.20776 | 32977 ft | 513 kts | 158° |
| 2026-04-22 04:10 | 36.48857 | -122.18545 | 33640 ft | 511 kts | 158° |
| 2026-04-22 04:11 | 36.45794 | -122.16324 | 34242 ft | 509 kts | 158° |
| 2026-04-22 04:11 | 36.42742 | -122.14112 | 34753 ft | 508 kts | 158° |
| 2026-04-22 04:11 | 36.39695 | -122.11904 | 35311 ft | 506 kts | 158° |
| 2026-04-22 04:11 | 36.36662 | -122.09707 | 35893 ft | 504 kts | 158° |
| 2026-04-22 04:12 | 36.33637 | -122.07522 | 36489 ft | 502 kts | 158° |
| 2026-04-22 04:12 | 36.30622 | -122.05346 | 37164 ft | 498 kts | 158° |
| 2026-04-22 04:12 | 36.27644 | -122.03193 | 37812 ft | 495 kts | 158° |
| 2026-04-22 04:12 | 36.24669 | -122.01052 | 38389 ft | 494 kts | 158° |
| 2026-04-22 04:13 | 36.21701 | -121.98916 | 38938 ft | 493 kts | 158° |
| 2026-04-22 04:13 | 36.18711 | -121.96766 | 39055 ft | 502 kts | 158° |
| 2026-04-22 04:13 | 36.15655 | -121.94577 | 39059 ft | 513 kts | 158° |
| 2026-04-22 04:13 | 36.12536 | -121.92335 | 39064 ft | 524 kts | 158° |
| 2026-04-22 04:14 | 36.06115 | -121.87721 | 39075 ft | 543 kts | 157° |
| 2026-04-22 04:14 | 36.02849 | -121.85285 | 39059 ft | 555 kts | 153° |
| 2026-04-22 04:14 | 35.99771 | -121.82342 | 39053 ft | 566 kts | 145° |
| 2026-04-22 04:15 | 35.94495 | -121.74982 | 39056 ft | 577 kts | 132° |
| 2026-04-22 04:15 | 35.89806 | -121.66873 | 39073 ft | 580 kts | 131° |
| 2026-04-22 04:16 | 35.82265 | -121.55254 | 39068 ft | 581 kts | 132° |
| 2026-04-22 04:17 | 35.77439 | -121.47365 | 39096 ft | 578 kts | 134° |
| 2026-04-22 04:17 | 35.72407 | -121.39622 | 39138 ft | 580 kts | 133° |
| 2026-04-22 04:18 | 35.67506 | -121.31742 | 39141 ft | 579 kts | 134° |
| 2026-04-22 04:18 | 35.62497 | -121.23983 | 39165 ft | 581 kts | 134° |
| 2026-04-22 04:19 | 35.57552 | -121.16141 | 39149 ft | 580 kts | 134° |
| 2026-04-22 04:19 | 35.52558 | -121.08381 | 39152 ft | 579 kts | 134° |
| 2026-04-22 04:20 | 35.47811 | -121.00325 | 39146 ft | 584 kts | 130° |
| 2026-04-22 04:20 | 35.43121 | -120.92209 | 39149 ft | 582 kts | 131° |
| 2026-04-22 04:21 | 35.38407 | -120.84134 | 39145 ft | 583 kts | 130° |
| 2026-04-22 04:21 | 35.33706 | -120.76036 | 39142 ft | 584 kts | 131° |
| 2026-04-22 04:22 | 35.28974 | -120.67957 | 39141 ft | 584 kts | 131° |
| 2026-04-22 04:22 | 35.24282 | -120.59923 | 39142 ft | 584 kts | 131° |
| 2026-04-22 04:23 | 35.19543 | -120.51862 | 39140 ft | 586 kts | 131° |
| 2026-04-22 04:23 | 35.14799 | -120.43779 | 39138 ft | 584 kts | 131° |
| 2026-04-22 04:24 | 35.10049 | -120.35732 | 39146 ft | 583 kts | 131° |
| 2026-04-22 04:24 | 35.05308 | -120.27698 | 39140 ft | 584 kts | 131° |
| 2026-04-22 04:25 | 35.00549 | -120.19667 | 39142 ft | 584 kts | 131° |
| 2026-04-22 04:25 | 34.96591 | -120.12992 | 39139 ft | 584 kts | 131° |
| 2026-04-22 04:26 | 34.91833 | -120.04990 | 39112 ft | 582 kts | 131° |
| 2026-04-22 04:26 | 34.87075 | -119.97008 | 39131 ft | 583 kts | 131° |
| 2026-04-22 04:27 | 34.82314 | -119.89033 | 39123 ft | 582 kts | 131° |
| 2026-04-22 04:27 | 34.77549 | -119.81074 | 39128 ft | 581 kts | 131° |
| 2026-04-22 04:28 | 34.72789 | -119.73143 | 39118 ft | 582 kts | 132° |
| 2026-04-22 04:28 | 34.68010 | -119.65191 | 39123 ft | 583 kts | 132° |
| 2026-04-22 04:29 | 34.63219 | -119.57241 | 39122 ft | 583 kts | 132° |
| 2026-04-22 04:29 | 34.58429 | -119.49311 | 39128 ft | 581 kts | 132° |
| 2026-04-22 04:30 | 34.53643 | -119.41405 | 39127 ft | 581 kts | 132° |
| 2026-04-22 04:30 | 34.48847 | -119.33499 | 39129 ft | 582 kts | 133° |
| 2026-04-22 04:31 | 34.44044 | -119.25597 | 39135 ft | 581 kts | 133° |
| 2026-04-22 04:31 | 34.39252 | -119.17735 | 39145 ft | 579 kts | 133° |
| 2026-04-22 04:32 | 34.34459 | -119.09886 | 39148 ft | 580 kts | 133° |
| 2026-04-22 04:32 | 34.29657 | -119.02040 | 39120 ft | 580 kts | 133° |
| 2026-04-22 04:33 | 34.24846 | -118.94197 | 39141 ft | 580 kts | 133° |
| 2026-04-22 04:33 | 34.20077 | -118.86436 | 39133 ft | 579 kts | 133° |
| 2026-04-22 04:34 | 34.15258 | -118.78616 | 39129 ft | 579 kts | 133° |
| 2026-04-22 04:34 | 34.10433 | -118.70801 | 39125 ft | 582 kts | 133° |
| 2026-04-22 04:34 | 34.08031 | -118.66911 | 38953 ft | 570 kts | 133° |
| 2026-04-22 04:35 | 34.05706 | -118.63136 | 38208 ft | 553 kts | 133° |
| 2026-04-22 04:35 | 34.03440 | -118.59477 | 37542 ft | 534 kts | 134° |
| 2026-04-22 04:35 | 34.01254 | -118.55965 | 36900 ft | 519 kts | 134° |
| 2026-04-22 04:35 | 33.99104 | -118.52514 | 36276 ft | 512 kts | 134° |
| 2026-04-22 04:36 | 33.96972 | -118.49088 | 35627 ft | 512 kts | 134° |
| 2026-04-22 04:36 | 33.94826 | -118.45642 | 35061 ft | 517 kts | 133° |
| 2026-04-22 04:36 | 33.92704 | -118.42383 | 34465 ft | 512 kts | 138° |
| 2026-04-22 04:36 | 33.90305 | -118.39233 | 33737 ft | 509 kts | 140° |
| 2026-04-22 04:37 | 33.87884 | -118.36185 | 33132 ft | 510 kts | 141° |
| 2026-04-22 04:37 | 33.85466 | -118.33086 | 32508 ft | 509 kts | 140° |
| 2026-04-22 04:37 | 33.83064 | -118.29926 | 31891 ft | 511 kts | 139° |
| 2026-04-22 04:37 | 33.80657 | -118.26786 | 31291 ft | 512 kts | 140° |
| 2026-04-22 04:38 | 33.78204 | -118.23653 | 30688 ft | 516 kts | 140° |
| 2026-04-22 04:38 | 33.75762 | -118.20513 | 30050 ft | 511 kts | 139° |
| 2026-04-22 04:38 | 33.73392 | -118.17350 | 29393 ft | 507 kts | 138° |
| 2026-04-22 04:38 | 33.71103 | -118.14288 | 28811 ft | 502 kts | 139° |
| 2026-04-22 04:39 | 33.68722 | -118.11186 | 28204 ft | 497 kts | 139° |
| 2026-04-22 04:39 | 33.66393 | -118.08173 | 27622 ft | 493 kts | 139° |
| 2026-04-22 04:39 | 33.64092 | -118.05148 | 27036 ft | 487 kts | 139° |
| 2026-04-22 04:39 | 33.61839 | -118.02167 | 26445 ft | 482 kts | 139° |
| 2026-04-22 04:40 | 33.59579 | -117.99218 | 25893 ft | 478 kts | 139° |
| 2026-04-22 04:40 | 33.57327 | -117.96297 | 25329 ft | 475 kts | 139° |
| 2026-04-22 04:40 | 33.55097 | -117.93399 | 24763 ft | 469 kts | 140° |
| 2026-04-22 04:40 | 33.52765 | -117.90695 | 24209 ft | 464 kts | 143° |
| 2026-04-22 04:41 | 33.50458 | -117.88008 | 23651 ft | 461 kts | 142° |
| 2026-04-22 04:41 | 33.48180 | -117.85330 | 22942 ft | 456 kts | 142° |
| 2026-04-22 04:41 | 33.45919 | -117.82707 | 22374 ft | 450 kts | 142° |
| 2026-04-22 04:41 | 33.43656 | -117.80155 | 21810 ft | 443 kts | 145° |
| 2026-04-22 04:42 | 33.41347 | -117.77731 | 21318 ft | 440 kts | 144° |
| 2026-04-22 04:42 | 33.39095 | -117.75273 | 20800 ft | 436 kts | 143° |
| 2026-04-22 04:42 | 33.36861 | -117.72841 | 20287 ft | 431 kts | 144° |
| 2026-04-22 04:42 | 33.34625 | -117.70478 | 19777 ft | 427 kts | 145° |
| 2026-04-22 04:43 | 33.32410 | -117.68142 | 19272 ft | 423 kts | 144° |
| 2026-04-22 04:43 | 33.30232 | -117.65807 | 18774 ft | 419 kts | 144° |
| 2026-04-22 04:43 | 33.28072 | -117.63489 | 18256 ft | 415 kts | 144° |
| 2026-04-22 04:43 | 33.25927 | -117.61211 | 17747 ft | 411 kts | 144° |
| 2026-04-22 04:44 | 33.23797 | -117.58957 | 17259 ft | 407 kts | 144° |
| 2026-04-22 04:44 | 33.21683 | -117.56730 | 16780 ft | 404 kts | 144° |
| 2026-04-22 04:44 | 33.19585 | -117.54527 | 16302 ft | 400 kts | 144° |
| 2026-04-22 04:44 | 33.17503 | -117.52336 | 15830 ft | 397 kts | 144° |
| 2026-04-22 04:45 | 33.15438 | -117.50162 | 15355 ft | 394 kts | 144° |
| 2026-04-22 04:45 | 33.13363 | -117.48054 | 14887 ft | 388 kts | 148° |
| 2026-04-22 04:45 | 33.11170 | -117.46225 | 14426 ft | 383 kts | 151° |
| 2026-04-22 04:45 | 33.08984 | -117.44431 | 13993 ft | 380 kts | 151° |
| 2026-04-22 04:46 | 33.06852 | -117.42648 | 13515 ft | 377 kts | 150° |
| 2026-04-22 04:46 | 33.04746 | -117.40875 | 13022 ft | 360 kts | 150° |
| 2026-04-22 04:46 | 33.02766 | -117.39209 | 12535 ft | 338 kts | 150° |
| 2026-04-22 04:46 | 33.00892 | -117.37639 | 12053 ft | 322 kts | 151° |
| 2026-04-22 04:47 | 32.99099 | -117.36139 | 11571 ft | 308 kts | 151° |
| 2026-04-22 04:47 | 32.97376 | -117.34695 | 11092 ft | 298 kts | 151° |
| 2026-04-22 04:47 | 32.95707 | -117.33296 | 10631 ft | 289 kts | 151° |
| 2026-04-22 04:47 | 32.94079 | -117.31935 | 10176 ft | 282 kts | 151° |
| 2026-04-22 04:48 | 32.92511 | -117.30621 | 10137 ft | 273 kts | 151° |
| 2026-04-22 04:48 | 32.90944 | -117.29318 | 10228 ft | 277 kts | 151° |
| 2026-04-22 04:48 | 32.89368 | -117.28011 | 10216 ft | 276 kts | 151° |
| 2026-04-22 04:48 | 32.87812 | -117.26713 | 9901 ft | 271 kts | 151° |
| 2026-04-22 04:49 | 32.86255 | -117.25421 | 9236 ft | 273 kts | 151° |
| 2026-04-22 04:49 | 32.84694 | -117.24125 | 8903 ft | 273 kts | 150° |
| 2026-04-22 04:49 | 32.83152 | -117.22842 | 8589 ft | 269 kts | 150° |
| 2026-04-22 04:49 | 32.81683 | -117.21463 | 8224 ft | 273 kts | 137° |
| 2026-04-22 04:50 | 32.80785 | -117.19470 | 7892 ft | 274 kts | 111° |
| 2026-04-22 04:50 | 32.80287 | -117.17290 | 7629 ft | 274 kts | 107° |
| 2026-04-22 04:50 | 32.79819 | -117.15081 | 7320 ft | 275 kts | 108° |
| 2026-04-22 04:50 | 32.79337 | -117.12900 | 6996 ft | 271 kts | 108° |
| 2026-04-22 04:51 | 32.78846 | -117.10735 | 6672 ft | 271 kts | 108° |
| 2026-04-22 04:51 | 32.78377 | -117.08640 | 6327 ft | 254 kts | 108° |
| 2026-04-22 04:51 | 32.77930 | -117.06638 | 6016 ft | 247 kts | 108° |
| 2026-04-22 04:51 | 32.77404 | -117.04729 | 5983 ft | 244 kts | 110° |
| 2026-04-22 04:52 | 32.76971 | -117.02778 | 5945 ft | 245 kts | 107° |
| 2026-04-22 04:52 | 32.76533 | -117.00826 | 5690 ft | 244 kts | 108° |
| 2026-04-22 04:52 | 32.76064 | -116.98924 | 5397 ft | 241 kts | 109° |
| 2026-04-22 04:52 | 32.75386 | -116.97141 | 5032 ft | 235 kts | 130° |
| 2026-04-22 04:53 | 32.74164 | -116.95928 | 4732 ft | 226 kts | 155° |
| 2026-04-22 04:53 | 32.72678 | -116.95442 | 4452 ft | 221 kts | 179° |
| 2026-04-22 04:53 | 32.71187 | -116.95715 | 4176 ft | 216 kts | 203° |
| 2026-04-22 04:53 | 32.69937 | -116.96660 | 3895 ft | 213 kts | 226° |
| 2026-04-22 04:54 | 32.69113 | -116.98098 | 3624 ft | 211 kts | 248° |
| 2026-04-22 04:54 | 32.68832 | -116.99791 | 3350 ft | 210 kts | 270° |
| 2026-04-22 04:54 | 32.69100 | -117.01485 | 3088 ft | 209 kts | 287° |
| 2026-04-22 04:54 | 32.69517 | -117.03151 | 2825 ft | 211 kts | 286° |
| 2026-04-22 04:55 | 32.69913 | -117.04789 | 2549 ft | 198 kts | 286° |
| 2026-04-22 04:55 | 32.70276 | -117.06286 | 2312 ft | 180 kts | 286° |
| 2026-04-22 04:55 | 32.70612 | -117.07665 | 2090 ft | 167 kts | 286° |
| 2026-04-22 04:55 | 32.70919 | -117.08921 | 1853 ft | 153 kts | 286° |
| 2026-04-22 04:56 | 32.71200 | -117.10076 | 1607 ft | 135 kts | 286° |
| 2026-04-22 04:56 | 32.71453 | -117.11115 | 1405 ft | 128 kts | 286° |
| 2026-04-22 04:56 | 32.71699 | -117.12125 | 1222 ft | 127 kts | 286° |
| 2026-04-22 04:56 | 32.71937 | -117.13119 | 1052 ft | 127 kts | 287° |
| 2026-04-22 04:57 | 32.72181 | -117.14125 | 815 ft | 127 kts | 287° |
| 2026-04-22 04:57 | 32.72431 | -117.15116 | 635 ft | 125 kts | 287° |
| 2026-04-22 04:57 | 32.72667 | -117.16109 | 470 ft | 125 kts | 287° |
| 2026-04-22 04:57 | 32.72896 | -117.17097 | 267 ft | 125 kts | 287° |
| 2026-04-22 04:58 | 32.73139 | -117.18083 | 71 ft | 121 kts | 287° |
| 2026-04-22 04:58 | 32.73361 | -117.18976 | 19 ft | 94 kts | 287° |
| 2026-04-22 04:58 | 32.73484 | -117.19492 | 21 ft | 47 kts | 287° |
| 2026-04-22 04:58 | 32.73531 | -117.19758 | 26 ft | 19 kts | 255° |
| 2026-04-22 04:59 | 32.73490 | -117.19841 | 21 ft | 7 kts | 192° |
| 2026-04-22 04:59 | 32.73461 | -117.19820 | 21 ft | 4 kts | 120° |
| 2026-04-22 04:59 | 32.73453 | -117.19785 | 21 ft | 5 kts | 104° |
| 2026-04-22 04:59 | 32.73431 | -117.19698 | 20 ft | 15 kts | 106° |
| 2026-04-22 05:00 | 32.73403 | -117.19580 | 22 ft | 14 kts | 106° |
| 2026-04-22 05:00 | 32.73375 | -117.19468 | 22 ft | 14 kts | 106° |
| 2026-04-22 05:00 | 32.73347 | -117.19352 | 20 ft | 16 kts | 105° |
| 2026-04-22 05:00 | 32.73315 | -117.19222 | 17 ft | 16 kts | 106° |
| 2026-04-22 05:01 | 32.73285 | -117.19095 | 19 ft | 15 kts | 106° |
| 2026-04-22 05:01 | 32.73258 | -117.18982 | 19 ft | 14 kts | 106° |
| 2026-04-22 05:01 | 32.73228 | -117.18860 | 22 ft | 19 kts | 105° |
| 2026-04-22 05:01 | 32.73192 | -117.18709 | 20 ft | 19 kts | 105° |
| 2026-04-22 05:02 | 32.73156 | -117.18561 | 20 ft | 16 kts | 105° |
| 2026-04-22 05:02 | 32.73156 | -117.18487 | 16 ft | 3 kts | 57° |
| 2026-04-22 05:02 | 32.73217 | -117.18456 | 18 ft | 18 kts | 14° |
| 2026-04-22 05:02 | 32.73346 | -117.18412 | 18 ft | 14 kts | 15° |
| 2026-04-22 05:03 | 32.73388 | -117.18387 | 17 ft | 1 kts | 98° |
| 2026-04-22 05:03 | 32.73367 | -117.18388 | 19 ft | 8 kts | 192° |
| 2026-04-22 05:03 | 32.73315 | -117.18319 | 16 ft | 21 kts | 104° |
| 2026-04-22 05:03 | 32.73272 | -117.18151 | 17 ft | 21 kts | 105° |
| 2026-04-22 05:04 | 32.73242 | -117.18010 | 15 ft | 11 kts | 85° |
| 2026-04-22 05:04 | 32.73294 | -117.17969 | 17 ft | 8 kts | 16° |
| 2026-04-22 05:04 | 32.73339 | -117.17953 | 19 ft | 6 kts | 15° |
| 2026-04-22 05:04 | 32.73381 | -117.17958 | 16 ft | 7 kts | 349° |
| 2026-04-22 05:05 | 32.73420 | -117.17946 | 19 ft | 6 kts | 14° |
| 2026-04-22 05:05 | 32.73446 | -117.17918 | 17 ft | 5 kts | 91° |
| 2026-04-22 05:05 | 32.73444 | -117.17912 | 17 ft | 0 kts | 116° |